This is the latest recevied weather packets stored in our database for station/object KN4MGS. If no packets are shown the sender has not sent any weather packets the latest 10 day(s).
| Time | Temp. | Humidity | Pressure | Rain* | Wind** | Luminosity | Snow |
|---|---|---|---|---|---|---|---|
| 1778039101 | 19.44° C | 72% | 1017.8 hPa | 0 mm | - | 0 W/m² | - |
| 1778038798 | 18.89° C | 73% | 1017.7 hPa | 0 mm | - | 0 W/m² | - |
| 1778038495 | 18.33° C | 73% | 1017.8 hPa | 0 mm | - | 0 W/m² | - |
| 1778038192 | 18.33° C | 72% | 1017.7 hPa | 0 mm | - | 0 W/m² | - |
| 1778037890 | 17.78° C | 74% | 1017.6 hPa | 0 mm | - | 0 W/m² | - |
| 1778037585 | 17.78° C | 75% | 1017.7 hPa | 0 mm | - | 0 W/m² | - |
| 1778037283 | 14.44° C | 85% | 1017.7 hPa | 0 mm | - | 0 W/m² | - |
| 1778036981 | 14.44° C | 87% | 1017.8 hPa | 0 mm | - | 0 W/m² | - |
| 1778036678 | 14.44° C | 86% | 1017.6 hPa | 0 mm | - | 0 W/m² | - |
| 1778036375 | 14.44° C | 85% | 1017.5 hPa | 0 mm | - | 0 W/m² | - |
| 1778036072 | 15° C | 84% | 1017.5 hPa | 0 mm | - | 0 W/m² | - |
| 1778035769 | 15° C | 83% | 1017.5 hPa | 0 mm | - | 0 W/m² | - |
| 1778035466 | 15° C | 82% | 1017.6 hPa | 0 mm | - | 0 W/m² | - |
| 1778035161 | 15.56° C | 80% | 1017.8 hPa | 0 mm | - | 0 W/m² | - |
| 1778034859 | 15.56° C | 80% | 1017.8 hPa | 0 mm | - | 0 W/m² | - |
| 1778034555 | 15.56° C | 80% | 1018 hPa | 0 mm | - | 0 W/m² | - |
| 1778034253 | 16.11° C | 79% | 1018 hPa | 0 mm | - | 0 W/m² | - |
| 1778033951 | 16.11° C | 78% | 1017.8 hPa | 0 mm | - | 0 W/m² | - |
| 1778033648 | 15.56° C | 78% | 1017.8 hPa | 0 mm | - | 0 W/m² | - |
| 1778033344 | 16.11° C | 78% | 1017.6 hPa | 0 mm | - | 0 W/m² | - |
| 1778033043 | 16.11° C | 78% | 1017.8 hPa | 0 mm | - | 0 W/m² | - |
| 1778032739 | 16.67° C | 77% | 1017.9 hPa | 0 mm | - | 0 W/m² | - |
| 1778032437 | 16.67° C | 75% | 1017.8 hPa | 0 mm | - | 0 W/m² | - |
| 1778032134 | 16.67° C | 75% | 1017.9 hPa | 0 mm | - | 0 W/m² | - |
| 1778031830 | 16.67° C | 74% | 1018 hPa | 0 mm | - | 0 W/m² | - |
* Rain latest hour (hover to see other rain measurements)
** Current wind speed in m/s (hover to see current wind gust speed)